Terminal Aerodrome Forecast
Issued by NWS

Home | Current Version | Previous Version | Text Only | Print | Product List | Glossary On
Versions: 1 2 3 4 5 6 7 8 9 10 11 12 13 14 15 16
000
FTUS43 KAPX 230137 AAA
TAFAPN
TAF AMD
KAPN 230137Z 2302/2324 21005KT 3SM BR OVC005 WS014/25028KT
     FM230500 19004KT 4SM BR OVC005
     FM231600 18008KT 5SM -RA BR OVC005 WS020/20032KT=

USA.gov is the U.S. government's official web portal to all federal, state and local government web resources and services.